createdAt,value
2023-02-14T00:00:52.103Z,12.00
2023-02-14T00:04:54.837Z,13.90
2023-02-14T00:08:56.244Z,14.63
2023-02-14T00:12:57.834Z,15.77
2023-02-14T00:16:59.453Z,13.30
2023-02-14T00:21:02.145Z,13.13
2023-02-14T00:25:04.177Z,13.20
2023-02-14T00:29:06.770Z,17.10
2023-02-14T00:33:08.137Z,14.30
2023-02-14T00:37:10.833Z,12.83
2023-02-14T00:41:12.499Z,20.80
2023-02-14T00:45:13.960Z,12.50
2023-02-14T00:49:15.430Z,15.20
2023-02-14T00:53:19.873Z,14.60
2023-02-14T00:57:21.316Z,9.37
2023-02-14T01:01:22.779Z,13.50
2023-02-14T01:05:24.196Z,11.13
2023-02-14T01:09:26.987Z,12.30
2023-02-14T01:13:28.316Z,11.43
2023-02-14T01:17:29.732Z,12.73
2023-02-14T01:21:33.754Z,10.57
2023-02-14T01:25:38.246Z,13.07
2023-02-14T01:29:39.615Z,12.90
2023-02-14T01:33:42.715Z,13.97
2023-02-14T01:37:44.113Z,12.87
2023-02-14T01:41:48.247Z,16.33
2023-02-14T01:45:49.680Z,18.40
2023-02-14T01:49:54.041Z,13.60
2023-02-14T01:53:56.466Z,10.27
2023-02-14T01:58:04.755Z,10.97
2023-02-14T02:02:07.717Z,10.23
2023-02-14T02:06:13.667Z,10.83
2023-02-14T02:10:15.026Z,9.27
2023-02-14T02:14:20.401Z,10.00
2023-02-14T02:18:32.166Z,13.17
2023-02-14T02:23:04.399Z,10.40
2023-02-14T02:27:44.346Z,10.73
2023-02-14T02:32:22.228Z,10.93
2023-02-14T02:36:50.000Z,9.23
2023-02-14T02:41:02.692Z,12.33
2023-02-14T02:45:11.793Z,14.57
2023-02-14T02:49:22.628Z,11.50
2023-02-14T02:53:32.099Z,10.70
2023-02-14T02:57:39.353Z,8.93
2023-02-14T03:01:41.369Z,9.00
2023-02-14T03:05:43.452Z,10.23
2023-02-14T03:09:54.741Z,10.57
2023-02-14T03:14:13.020Z,12.83
2023-02-14T03:18:30.115Z,12.07
2023-02-14T03:22:48.477Z,11.03
2023-02-14T03:26:59.612Z,11.07
2023-02-14T03:31:07.667Z,12.00
2023-02-14T03:35:18.148Z,10.77
2023-02-14T03:39:28.945Z,9.73
2023-02-14T03:43:35.253Z,11.77
2023-02-14T03:47:40.791Z,10.13
2023-02-14T03:51:47.593Z,10.63
2023-02-14T03:55:58.227Z,11.43
2023-02-14T04:00:01.117Z,9.83
2023-02-14T04:04:06.490Z,12.53
2023-02-14T04:08:07.898Z,10.77
2023-02-14T04:12:09.682Z,14.60
2023-02-14T04:16:12.521Z,14.10
2023-02-14T04:20:13.902Z,10.80
2023-02-14T04:24:15.273Z,11.97
2023-02-14T04:28:16.911Z,11.20
2023-02-14T04:32:22.040Z,11.50
2023-02-14T04:36:23.487Z,12.53
2023-02-14T04:40:24.844Z,11.07
2023-02-14T04:44:26.664Z,11.97
2023-02-14T04:48:29.344Z,16.27
2023-02-14T04:52:30.904Z,13.27
2023-02-14T04:56:32.328Z,13.97
2023-02-14T05:00:33.723Z,16.53
2023-02-14T05:04:36.481Z,15.60
2023-02-14T05:08:38.212Z,14.87
2023-02-14T05:12:39.640Z,15.27
2023-02-14T05:16:41.310Z,13.40
2023-02-14T05:20:44.126Z,15.73
2023-02-14T05:24:45.522Z,18.27
2023-02-14T05:28:48.281Z,14.50
2023-02-14T05:32:49.672Z,13.43
2023-02-14T05:36:52.525Z,14.23
2023-02-14T05:40:54.144Z,14.47
2023-02-14T05:44:55.528Z,17.53
2023-02-14T05:48:56.948Z,17.40
2023-02-14T05:53:00.754Z,16.03
2023-02-14T05:57:02.154Z,14.97
2023-02-14T06:01:03.673Z,18.27
2023-02-14T06:05:05.712Z,19.70
2023-02-14T06:09:08.643Z,22.90
2023-02-14T06:13:10.028Z,17.37
2023-02-14T06:17:11.869Z,15.07
2023-02-14T06:25:43.802Z,23.03
2023-02-14T06:29:45.180Z,21.90
2023-02-14T06:33:46.548Z,25.73
2023-02-14T06:37:48.174Z,23.20
2023-02-14T06:41:50.866Z,23.40
2023-02-14T06:45:52.291Z,23.67
2023-02-14T06:49:53.727Z,23.63
2023-02-14T06:53:55.111Z,24.63
2023-02-14T06:57:57.862Z,27.67
2023-02-14T07:01:59.252Z,27.63
2023-02-14T07:06:00.681Z,28.60
2023-02-14T07:10:02.052Z,27.27
2023-02-14T07:14:04.745Z,26.90
2023-02-14T07:18:06.382Z,26.70
2023-02-14T07:22:07.770Z,25.87
2023-02-14T07:26:09.304Z,27.93
2023-02-14T07:30:13.277Z,27.80
2023-02-14T07:34:14.732Z,33.83
2023-02-14T07:38:16.103Z,27.47
2023-02-14T07:42:17.480Z,30.50
2023-02-14T07:46:20.295Z,27.63
2023-02-14T07:50:22.945Z,27.90
2023-02-14T07:54:24.416Z,31.07
2023-02-14T07:58:25.811Z,34.37
2023-02-14T08:02:28.526Z,31.43
2023-02-14T08:06:29.923Z,31.97
2023-02-14T08:10:31.404Z,30.43
2023-02-14T08:14:32.777Z,30.93
2023-02-14T08:18:37.281Z,30.40
2023-02-14T08:22:38.658Z,27.80
2023-02-14T08:26:40.022Z,30.57
2023-02-14T08:30:42.278Z,30.80
2023-02-14T08:34:45.016Z,34.10
2023-02-14T08:38:46.506Z,28.00
2023-02-14T08:42:47.932Z,29.50
2023-02-14T08:46:49.348Z,31.83
2023-02-14T08:50:52.064Z,25.77
2023-02-14T08:54:53.441Z,31.37
2023-02-14T08:58:54.920Z,32.37
2023-02-14T09:02:56.381Z,29.30
2023-02-14T09:06:59.063Z,27.13
2023-02-14T09:11:06.783Z,29.07
2023-02-14T09:15:09.745Z,26.27
2023-02-14T09:19:11.453Z,26.97
2023-02-14T09:23:14.197Z,25.90
2023-02-14T09:27:15.578Z,30.10
2023-02-14T09:31:19.638Z,26.23
2023-02-14T09:35:21.071Z,28.27
2023-02-14T09:39:23.855Z,25.13
2023-02-14T09:43:34.121Z,31.33
2023-02-14T09:47:39.988Z,26.30
2023-02-14T09:51:46.573Z,26.33
2023-02-14T09:55:56.457Z,27.23
2023-02-14T10:00:13.435Z,26.40
2023-02-14T10:04:24.000Z,27.37
2023-02-14T10:08:33.129Z,24.53
2023-02-14T10:12:39.806Z,26.67
2023-02-14T10:16:47.050Z,27.20
2023-02-14T10:20:52.789Z,26.27
2023-02-14T10:24:58.903Z,27.60
2023-02-14T10:29:04.635Z,24.90
2023-02-14T10:33:15.398Z,23.10
2023-02-14T10:37:32.371Z,25.50
2023-02-14T10:41:46.509Z,26.77
2023-02-14T10:45:58.528Z,24.13
2023-02-14T10:50:11.490Z,22.77
2023-02-14T10:54:20.203Z,22.63
2023-02-14T10:58:23.747Z,22.00
2023-02-14T11:02:31.547Z,24.63
2023-02-14T11:06:33.303Z,20.90
2023-02-14T11:10:34.718Z,22.80
2023-02-14T11:14:37.724Z,21.07
2023-02-14T11:18:41.054Z,21.07
2023-02-14T11:22:43.537Z,19.93
2023-02-14T11:26:47.310Z,17.80
2023-02-14T11:30:51.113Z,20.57
2023-02-14T11:34:58.831Z,21.60
2023-02-14T11:39:06.046Z,18.80
2023-02-14T11:43:19.419Z,20.50
2023-02-14T11:47:27.133Z,19.13
2023-02-14T11:51:33.476Z,18.47
2023-02-14T11:55:35.046Z,19.00
2023-02-14T11:59:40.541Z,18.83
2023-02-14T12:03:46.547Z,20.87
2023-02-14T12:07:52.366Z,19.83
2023-02-14T12:11:58.445Z,20.80
2023-02-14T12:16:00.309Z,16.77
2023-02-14T12:20:08.855Z,16.20
2023-02-14T12:24:20.921Z,19.33
2023-02-14T12:28:28.166Z,20.17
2023-02-14T12:32:31.684Z,21.07
2023-02-14T12:36:49.825Z,18.73
2023-02-14T12:41:04.234Z,19.10
2023-02-14T12:45:17.234Z,18.17
2023-02-14T12:49:32.598Z,15.00
2023-02-14T12:53:56.080Z,17.40
2023-02-14T12:58:06.417Z,13.70
2023-02-14T13:02:41.905Z,17.30
2023-02-14T13:06:48.719Z,14.03
2023-02-14T13:10:57.265Z,15.23
2023-02-14T13:15:11.157Z,15.20
2023-02-14T13:19:26.486Z,15.07
2023-02-14T13:23:33.525Z,17.73
2023-02-14T13:27:38.450Z,14.57
2023-02-14T13:31:41.943Z,16.73
2023-02-14T13:35:43.883Z,18.80
2023-02-14T13:39:48.715Z,18.83
2023-02-14T13:43:57.503Z,19.03
2023-02-14T13:48:05.399Z,21.20
2023-02-14T13:52:06.855Z,20.57
2023-02-14T13:56:32.379Z,16.30
2023-02-14T14:00:43.631Z,15.60
2023-02-14T14:04:46.379Z,16.27
2023-02-14T14:08:50.661Z,15.97
2023-02-14T14:12:52.118Z,16.00
2023-02-14T14:16:57.875Z,15.07
2023-02-14T14:21:00.894Z,14.97
2023-02-14T14:25:04.652Z,15.77
2023-02-14T14:29:18.109Z,13.10
2023-02-14T14:33:25.719Z,15.77
2023-02-14T14:37:30.338Z,17.50
2023-02-14T14:41:32.649Z,14.80
2023-02-14T14:45:34.445Z,13.43
2023-02-14T14:49:36.601Z,16.70
2023-02-14T14:53:44.663Z,14.20
2023-02-14T14:57:50.566Z,15.50
2023-02-14T15:01:52.099Z,16.20
2023-02-14T15:06:04.879Z,15.67
2023-02-14T15:10:24.202Z,15.17
2023-02-14T15:14:30.238Z,16.20
2023-02-14T15:18:31.664Z,14.87
2023-02-14T15:22:41.813Z,16.27
2023-02-14T15:26:46.687Z,15.43
2023-02-14T15:30:56.137Z,16.57
2023-02-14T15:35:01.614Z,18.00
2023-02-14T15:39:06.371Z,16.17
2023-02-14T15:43:21.286Z,15.70
2023-02-14T15:47:22.662Z,15.53
2023-02-14T15:51:27.073Z,17.17
2023-02-14T15:55:29.842Z,15.90
2023-02-14T15:59:34.898Z,15.47
2023-02-14T16:03:40.144Z,13.83
2023-02-14T16:07:55.688Z,15.73
2023-02-14T16:11:57.244Z,16.50
2023-02-14T16:16:01.612Z,14.80
2023-02-14T16:20:28.351Z,15.23
2023-02-14T16:24:29.927Z,15.63
2023-02-14T16:28:35.813Z,15.03
2023-02-14T16:32:57.348Z,15.47
2023-02-14T16:41:24.439Z,12.80
2023-02-14T16:45:40.868Z,16.33
2023-02-14T16:49:43.982Z,14.67
2023-02-14T16:53:45.863Z,17.07
2023-02-14T16:57:51.349Z,12.97
2023-02-14T17:01:53.090Z,16.20
2023-02-14T17:05:57.776Z,14.80
2023-02-14T17:10:02.799Z,14.73
2023-02-14T17:14:04.614Z,15.07
2023-02-14T17:18:11.513Z,14.83
2023-02-14T17:22:14.555Z,16.43
2023-02-14T17:26:16.369Z,16.50
2023-02-14T17:30:18.232Z,16.23
2023-02-14T17:34:19.653Z,16.40
2023-02-14T17:38:22.353Z,15.53
2023-02-14T17:42:24.026Z,15.63
2023-02-14T17:46:25.984Z,15.83
2023-02-14T17:50:27.360Z,17.93
2023-02-14T17:54:30.073Z,16.93
2023-02-14T17:58:31.551Z,19.23
2023-02-14T18:02:32.971Z,18.40
2023-02-14T18:06:34.444Z,18.13
2023-02-14T18:10:38.640Z,18.17
2023-02-14T18:14:40.319Z,19.07
2023-02-14T18:18:46.012Z,16.70
2023-02-14T18:22:47.420Z,19.13
2023-02-14T18:26:50.223Z,17.63
2023-02-14T18:30:52.369Z,18.30
2023-02-14T18:34:54.046Z,20.03
2023-02-14T18:38:55.836Z,16.83
2023-02-14T18:42:58.532Z,19.03
2023-02-14T18:46:59.980Z,19.93
2023-02-14T18:51:05.326Z,17.17
2023-02-14T18:55:09.099Z,19.33
2023-02-14T18:59:11.807Z,23.20
2023-02-14T19:03:13.201Z,19.30
2023-02-14T19:07:14.662Z,19.13
2023-02-14T19:11:18.953Z,19.70
2023-02-14T19:15:21.651Z,20.03
2023-02-14T19:19:23.084Z,19.17
2023-02-14T19:23:24.633Z,23.87
2023-02-14T19:27:26.262Z,20.60
2023-02-14T19:31:29.293Z,20.30
2023-02-14T19:35:30.760Z,21.23
2023-02-14T19:39:32.244Z,20.93
2023-02-14T19:43:33.572Z,20.97
2023-02-14T19:47:46.712Z,22.20
2023-02-14T19:51:49.826Z,21.80
2023-02-14T19:55:51.189Z,25.23
2023-02-14T19:59:52.588Z,23.57
2023-02-14T20:03:55.727Z,21.53
2023-02-14T20:07:57.083Z,23.63
2023-02-14T20:11:58.566Z,24.90
2023-02-14T20:15:59.929Z,23.80
2023-02-14T20:20:02.973Z,24.20
2023-02-14T20:24:04.847Z,23.50
2023-02-14T20:28:10.251Z,26.67
2023-02-14T20:32:14.807Z,23.47
2023-02-14T20:36:23.824Z,24.57
2023-02-14T20:40:25.487Z,23.50
2023-02-14T20:44:26.993Z,25.17
2023-02-14T20:48:29.490Z,25.30
2023-02-14T20:52:32.236Z,25.40
2023-02-14T20:56:33.829Z,29.10
2023-02-14T21:00:35.184Z,25.20
2023-02-14T21:04:36.583Z,28.13
2023-02-14T21:08:42.311Z,25.10
2023-02-14T21:12:43.762Z,27.67
2023-02-14T21:16:45.159Z,26.03
2023-02-14T21:20:46.534Z,26.63
2023-02-14T21:24:49.483Z,27.17
2023-02-14T21:28:51.107Z,30.43
2023-02-14T21:32:52.862Z,28.13
2023-02-14T21:36:54.227Z,27.10
2023-02-14T21:41:01.623Z,27.33
2023-02-14T21:45:03.311Z,26.27
2023-02-14T21:49:05.969Z,27.53
2023-02-14T21:53:07.464Z,26.70
2023-02-14T21:57:10.255Z,27.87
2023-02-14T22:01:15.612Z,27.63
2023-02-14T22:05:17.298Z,28.57
2023-02-14T22:09:18.763Z,27.87
2023-02-14T22:13:21.686Z,28.80
2023-02-14T22:17:23.046Z,28.27
2023-02-14T22:21:26.216Z,30.00
2023-02-14T22:25:27.617Z,28.80
2023-02-14T22:29:30.317Z,26.47
2023-02-14T22:33:31.701Z,27.80
2023-02-14T22:37:33.217Z,27.90
2023-02-14T22:41:35.087Z,32.07
2023-02-14T22:45:37.786Z,28.77
2023-02-14T22:49:39.215Z,31.77
2023-02-14T22:53:40.553Z,32.30
2023-02-14T22:57:41.881Z,30.57
2023-02-14T23:01:45.460Z,34.20
2023-02-14T23:05:47.081Z,32.60
2023-02-14T23:09:49.247Z,28.70
2023-02-14T23:13:50.795Z,29.37
2023-02-14T23:17:53.467Z,31.83
2023-02-14T23:21:54.881Z,29.23
2023-02-14T23:25:56.255Z,35.33
2023-02-14T23:29:57.969Z,32.87
2023-02-14T23:34:00.685Z,36.33
2023-02-14T23:38:02.103Z,34.13
2023-02-14T23:42:03.662Z,36.07
2023-02-14T23:46:05.299Z,36.90
2023-02-14T23:50:09.158Z,33.53
2023-02-14T23:54:11.467Z,37.73
2023-02-14T23:58:12.821Z,39.40
